createdAt,value
2023-05-25T00:01:01.159Z,12.60
2023-05-25T00:03:33.980Z,12.60
2023-05-25T00:06:05.755Z,12.50
2023-05-25T00:08:36.728Z,12.50
2023-05-25T00:11:07.689Z,12.50
2023-05-25T00:13:39.933Z,12.50
2023-05-25T00:16:10.883Z,12.40
2023-05-25T00:18:43.270Z,12.40
2023-05-25T00:21:15.687Z,12.40
2023-05-25T00:23:46.604Z,12.40
2023-05-25T00:26:17.596Z,12.40
2023-05-25T00:28:48.509Z,12.30
2023-05-25T00:31:19.561Z,12.30
2023-05-25T00:33:50.695Z,12.30
2023-05-25T00:36:21.622Z,12.30
2023-05-25T00:38:52.684Z,12.30
2023-05-25T00:41:26.286Z,12.40
2023-05-25T00:43:57.366Z,12.40
2023-05-25T00:46:29.106Z,12.40
2023-05-25T00:49:00.323Z,12.50
2023-05-25T00:51:36.554Z,12.50
2023-05-25T00:54:07.813Z,12.60
2023-05-25T00:56:44.458Z,12.80
2023-05-25T00:59:41.773Z,12.90
2023-05-25T01:02:17.068Z,13.00
2023-05-25T01:04:53.935Z,12.90
2023-05-25T01:07:27.041Z,12.80
2023-05-25T01:10:01.753Z,12.70
2023-05-25T01:12:39.127Z,12.70
2023-05-25T01:15:11.472Z,12.40
2023-05-25T01:17:43.857Z,12.50
2023-05-25T01:20:14.871Z,12.70
2023-05-25T01:22:54.639Z,12.70
2023-05-25T01:25:54.221Z,12.60
2023-05-25T01:28:41.441Z,12.60
2023-05-25T01:31:16.071Z,12.30
2023-05-25T01:33:51.826Z,12.30
2023-05-25T01:36:22.854Z,12.30
2023-05-25T01:38:54.053Z,12.20
2023-05-25T01:41:24.978Z,12.00
2023-05-25T01:43:56.022Z,11.90
2023-05-25T01:46:40.843Z,11.90
2023-05-25T01:49:31.093Z,11.90
2023-05-25T01:52:27.137Z,11.80
2023-05-25T01:55:07.534Z,11.70
2023-05-25T01:57:43.730Z,11.70
2023-05-25T02:00:15.731Z,11.60
2023-05-25T02:02:50.936Z,11.50
2023-05-25T02:05:21.884Z,11.40
2023-05-25T02:07:52.831Z,11.40
2023-05-25T02:10:23.799Z,11.40
2023-05-25T02:12:54.728Z,11.40
2023-05-25T02:15:25.754Z,11.40
2023-05-25T02:17:57.909Z,11.40
2023-05-25T02:20:29.078Z,11.20
2023-05-25T02:23:00.058Z,11.10
2023-05-25T02:25:31.090Z,11.10
2023-05-25T02:28:02.320Z,11.10
2023-05-25T02:30:33.326Z,10.90
2023-05-25T02:33:04.375Z,10.90
2023-05-25T02:35:36.489Z,10.80
2023-05-25T02:38:07.589Z,10.80
2023-05-25T02:40:38.578Z,10.70
2023-05-25T02:43:09.921Z,10.70
2023-05-25T02:45:40.969Z,10.50
2023-05-25T02:48:12.332Z,10.40
2023-05-25T02:50:43.295Z,10.30
2023-05-25T02:53:14.239Z,10.30
2023-05-25T02:55:45.371Z,10.20
2023-05-25T02:58:16.700Z,10.10
2023-05-25T03:00:47.711Z,10.10
2023-05-25T03:03:18.708Z,10.10
2023-05-25T03:05:52.263Z,10.00
2023-05-25T03:08:23.694Z,10.10
2023-05-25T03:10:54.590Z,10.10
2023-05-25T03:13:25.714Z,10.00
2023-05-25T03:15:56.643Z,10.00
2023-05-25T03:18:28.127Z,9.90
2023-05-25T03:20:59.092Z,9.90
2023-05-25T03:23:30.013Z,9.80
2023-05-25T03:26:00.985Z,9.70
2023-05-25T03:28:31.886Z,9.60
2023-05-25T03:31:02.895Z,9.60
2023-05-25T03:33:33.985Z,9.50
2023-05-25T03:36:09.527Z,9.50
2023-05-25T03:38:40.457Z,9.60
2023-05-25T03:41:11.455Z,9.60
2023-05-25T03:43:42.452Z,9.70
2023-05-25T03:46:13.457Z,9.70
2023-05-25T03:48:44.432Z,9.70
2023-05-25T03:51:16.478Z,9.80
2023-05-25T03:53:47.437Z,9.70
2023-05-25T03:56:18.383Z,9.70
2023-05-25T03:58:49.776Z,9.70
2023-05-25T04:01:20.794Z,9.80
2023-05-25T04:03:53.015Z,9.80
2023-05-25T04:06:25.702Z,9.80
2023-05-25T04:08:58.045Z,9.90
2023-05-25T04:11:29.170Z,9.90
2023-05-25T04:14:00.172Z,10.00
2023-05-25T04:16:31.232Z,10.20
2023-05-25T04:19:02.324Z,10.20
2023-05-25T04:21:33.395Z,10.40
2023-05-25T04:24:04.602Z,10.50
2023-05-25T04:26:35.545Z,10.70
2023-05-25T04:29:07.090Z,10.80
2023-05-25T04:31:39.246Z,10.70
2023-05-25T04:34:10.160Z,10.50
2023-05-25T04:36:43.193Z,10.50
2023-05-25T04:39:14.212Z,10.50
2023-05-25T04:41:46.374Z,10.40
2023-05-25T04:44:17.880Z,10.40
2023-05-25T04:46:48.848Z,10.40
2023-05-25T04:49:19.825Z,10.40
2023-05-25T04:51:51.553Z,10.60
2023-05-25T04:54:22.568Z,10.70
2023-05-25T04:56:53.535Z,10.70
2023-05-25T04:59:24.465Z,10.80
2023-05-25T05:01:55.460Z,10.60
2023-05-25T05:04:26.449Z,10.70
2023-05-25T05:06:58.965Z,10.80
2023-05-25T05:09:30.174Z,10.80
2023-05-25T05:12:01.828Z,10.90
2023-05-25T05:14:32.792Z,11.00
2023-05-25T05:17:04.614Z,11.20
2023-05-25T05:19:37.918Z,11.40
2023-05-25T05:22:09.797Z,11.40
2023-05-25T05:24:40.729Z,11.30
2023-05-25T05:27:16.612Z,11.30
2023-05-25T05:29:47.516Z,11.40
2023-05-25T05:32:18.525Z,11.40
2023-05-25T05:34:50.793Z,11.40
2023-05-25T05:37:21.821Z,11.50
2023-05-25T05:39:53.357Z,11.50
2023-05-25T05:42:24.402Z,11.60
2023-05-25T05:44:55.284Z,11.60
2023-05-25T05:47:26.611Z,11.60
2023-05-25T05:49:57.651Z,11.60
2023-05-25T05:52:28.616Z,11.70
2023-05-25T05:54:59.530Z,11.80
2023-05-25T05:57:30.587Z,11.80
2023-05-25T06:00:01.584Z,11.90
2023-05-25T06:02:32.727Z,11.90
2023-05-25T06:05:03.986Z,12.00
2023-05-25T06:07:35.307Z,12.00
2023-05-25T06:10:07.303Z,12.20
2023-05-25T06:12:38.287Z,12.20
2023-05-25T06:15:09.798Z,12.20
2023-05-25T06:17:41.925Z,12.30
2023-05-25T06:20:15.110Z,12.30
2023-05-25T06:22:46.211Z,12.40
2023-05-25T06:25:17.583Z,12.50
2023-05-25T06:27:48.535Z,12.70
2023-05-25T06:30:19.499Z,12.60
2023-05-25T06:32:50.511Z,12.70
2023-05-25T06:35:21.556Z,12.80
2023-05-25T06:37:52.836Z,12.80
2023-05-25T06:40:25.056Z,12.80
2023-05-25T06:42:56.135Z,13.00
2023-05-25T06:45:27.037Z,13.00
2023-05-25T06:47:58.140Z,13.10
2023-05-25T06:50:29.407Z,13.10
2023-05-25T06:53:00.688Z,13.10
2023-05-25T06:55:31.761Z,13.20
2023-05-25T06:58:02.896Z,13.30
2023-05-25T07:00:33.918Z,13.50
2023-05-25T07:03:04.840Z,13.60
2023-05-25T07:05:35.810Z,13.70
2023-05-25T07:08:06.833Z,13.90
2023-05-25T07:10:37.758Z,13.90
2023-05-25T07:13:10.116Z,13.90
2023-05-25T07:15:41.137Z,14.10
2023-05-25T07:18:13.130Z,14.20
2023-05-25T07:20:44.525Z,14.20
2023-05-25T07:23:15.575Z,14.30
2023-05-25T07:25:46.764Z,14.30
2023-05-25T07:28:17.917Z,14.30
2023-05-25T07:30:48.821Z,14.40
2023-05-25T07:33:19.764Z,14.40
2023-05-25T07:35:51.822Z,14.40
2023-05-25T07:38:22.821Z,14.60
2023-05-25T07:40:53.717Z,14.60
2023-05-25T07:43:24.948Z,14.80
2023-05-25T07:45:55.995Z,14.90
2023-05-25T07:48:27.137Z,15.00
2023-05-25T07:50:58.132Z,15.00
2023-05-25T07:53:29.211Z,15.10
2023-05-25T07:56:00.124Z,15.30
2023-05-25T07:58:31.072Z,15.40
2023-05-25T08:01:02.108Z,15.60
2023-05-25T08:03:47.974Z,15.80
2023-05-25T08:06:20.783Z,15.90
2023-05-25T08:08:51.995Z,15.90
2023-05-25T08:11:26.765Z,16.00
2023-05-25T08:13:57.672Z,16.30
2023-05-25T08:16:28.657Z,16.30
2023-05-25T08:19:01.959Z,16.30
2023-05-25T08:21:35.180Z,16.40
2023-05-25T08:24:08.447Z,16.40
2023-05-25T08:26:53.841Z,16.20
2023-05-25T08:29:25.939Z,16.20
2023-05-25T08:31:57.279Z,16.30
2023-05-25T08:34:29.221Z,16.40
2023-05-25T08:37:00.567Z,16.30
2023-05-25T08:39:32.969Z,16.30
2023-05-25T08:42:07.206Z,16.50
2023-05-25T08:44:39.909Z,16.60
2023-05-25T08:47:13.455Z,16.70
2023-05-25T08:49:45.753Z,16.80
2023-05-25T08:52:22.915Z,17.00
2023-05-25T08:54:58.928Z,17.10
2023-05-25T08:58:00.615Z,17.10
2023-05-25T09:00:45.218Z,17.30
2023-05-25T09:03:20.304Z,17.30
2023-05-25T09:05:51.848Z,17.40
2023-05-25T09:08:23.425Z,17.40
2023-05-25T09:10:57.504Z,17.40
2023-05-25T09:13:28.526Z,17.60
2023-05-25T09:15:59.509Z,17.70
2023-05-25T09:18:30.495Z,17.70
2023-05-25T09:21:02.860Z,17.70
2023-05-25T09:23:35.550Z,17.90
2023-05-25T09:26:06.576Z,18.00
2023-05-25T09:28:47.035Z,18.00
2023-05-25T09:31:18.004Z,18.10
2023-05-25T09:33:49.064Z,18.10
2023-05-25T09:36:22.048Z,18.10
2023-05-25T09:38:55.000Z,18.20
2023-05-25T09:41:29.263Z,18.20
2023-05-25T09:44:10.941Z,18.20
2023-05-25T09:46:44.161Z,18.10
2023-05-25T09:49:15.516Z,18.10
2023-05-25T09:51:47.155Z,18.20
2023-05-25T09:54:18.209Z,18.30
2023-05-25T09:56:49.782Z,18.20
2023-05-25T09:59:23.205Z,18.30
2023-05-25T10:01:54.334Z,18.30
2023-05-25T10:04:25.588Z,18.50
2023-05-25T10:06:57.542Z,18.70
2023-05-25T10:09:30.723Z,18.80
2023-05-25T10:12:02.859Z,18.80
2023-05-25T10:14:37.845Z,19.00
2023-05-25T10:17:11.608Z,19.20
2023-05-25T10:19:52.765Z,19.30
2023-05-25T10:22:48.621Z,19.40
2023-05-25T10:25:31.342Z,19.50
2023-05-25T10:28:08.478Z,19.70
2023-05-25T10:30:41.360Z,19.80
2023-05-25T10:33:12.954Z,20.00
2023-05-25T10:36:01.671Z,20.00
2023-05-25T10:38:34.402Z,20.10
2023-05-25T10:41:09.235Z,20.30
2023-05-25T10:43:41.215Z,20.40
2023-05-25T10:46:15.084Z,20.60
2023-05-25T10:48:48.918Z,20.80
2023-05-25T10:51:20.999Z,21.00
2023-05-25T10:54:04.286Z,21.10
2023-05-25T10:56:35.265Z,21.10
2023-05-25T10:59:06.236Z,21.10
2023-05-25T11:01:51.715Z,21.20
2023-05-25T11:04:23.156Z,21.20
2023-05-25T11:07:16.455Z,21.30
2023-05-25T11:09:58.587Z,21.40
2023-05-25T11:12:29.634Z,21.80
2023-05-25T11:15:17.230Z,21.90
2023-05-25T11:18:01.536Z,22.00
2023-05-25T11:20:34.018Z,22.00
2023-05-25T11:23:23.459Z,22.10
2023-05-25T11:26:06.766Z,22.10
2023-05-25T11:28:47.070Z,22.20
2023-05-25T11:31:35.861Z,22.30
2023-05-25T11:34:09.436Z,22.40
2023-05-25T11:36:41.402Z,22.40
2023-05-25T11:39:22.012Z,22.40
2023-05-25T11:42:04.027Z,22.60
2023-05-25T11:44:36.900Z,22.80
2023-05-25T11:47:13.457Z,23.10
2023-05-25T11:49:47.146Z,23.20
2023-05-25T11:52:20.153Z,23.30
2023-05-25T11:54:53.125Z,23.60
2023-05-25T11:57:25.728Z,23.50
2023-05-25T12:00:01.990Z,23.50
2023-05-25T12:02:41.281Z,23.40
2023-05-25T12:05:12.429Z,23.50
2023-05-25T12:07:46.768Z,23.30
2023-05-25T12:10:18.312Z,23.00
2023-05-25T12:12:53.189Z,22.80
2023-05-25T12:15:25.844Z,22.70
2023-05-25T12:17:57.098Z,22.50
2023-05-25T12:20:28.345Z,22.60
2023-05-25T12:22:59.429Z,22.70
2023-05-25T12:25:42.358Z,22.80
2023-05-25T12:28:20.457Z,22.90
2023-05-25T12:30:52.011Z,23.10
2023-05-25T12:33:23.254Z,23.20
2023-05-25T12:35:55.824Z,23.30
2023-05-25T12:38:26.860Z,23.50
2023-05-25T12:41:08.117Z,23.70
2023-05-25T12:43:43.829Z,24.00
2023-05-25T12:46:25.912Z,24.10
2023-05-25T12:48:56.918Z,24.00
2023-05-25T12:51:39.207Z,23.80
2023-05-25T12:54:10.151Z,23.70
2023-05-25T12:56:59.732Z,23.70
2023-05-25T12:59:31.485Z,23.70
2023-05-25T13:02:05.253Z,23.70
2023-05-25T13:04:38.147Z,23.70
2023-05-25T13:07:10.132Z,23.60
2023-05-25T13:09:41.444Z,23.60
2023-05-25T13:12:12.880Z,23.70
2023-05-25T13:14:43.806Z,23.70
2023-05-25T13:17:15.412Z,23.70
2023-05-25T13:19:46.312Z,23.80
2023-05-25T13:22:17.298Z,23.70
2023-05-25T13:24:48.203Z,23.90
2023-05-25T13:27:19.099Z,24.10
2023-05-25T13:29:50.076Z,24.10
2023-05-25T13:32:21.181Z,24.20
2023-05-25T13:34:54.072Z,24.40
2023-05-25T13:37:25.345Z,24.30
2023-05-25T13:39:56.476Z,24.40
2023-05-25T13:42:27.420Z,24.30
2023-05-25T13:44:58.443Z,24.30
2023-05-25T13:47:29.441Z,24.50
2023-05-25T13:50:00.359Z,24.60
2023-05-25T13:52:31.266Z,24.80
2023-05-25T13:55:02.153Z,25.00
2023-05-25T13:57:33.068Z,25.00
2023-05-25T14:00:06.116Z,25.30
2023-05-25T14:02:37.255Z,25.50
2023-05-25T14:05:08.854Z,25.50
2023-05-25T14:07:41.261Z,25.50
2023-05-25T14:10:12.332Z,25.50
2023-05-25T14:12:43.362Z,25.50
2023-05-25T14:15:14.328Z,25.20
2023-05-25T14:17:45.359Z,25.20
2023-05-25T14:20:21.217Z,25.10
2023-05-25T14:22:53.053Z,25.00
2023-05-25T14:25:24.112Z,25.00
2023-05-25T14:27:55.908Z,25.10
2023-05-25T14:30:26.893Z,25.10
2023-05-25T14:32:57.873Z,25.00
2023-05-25T14:35:28.930Z,24.90
2023-05-25T14:37:59.942Z,24.90
2023-05-25T14:40:30.971Z,24.80
2023-05-25T14:43:02.073Z,24.70
2023-05-25T14:45:33.006Z,24.80
2023-05-25T14:48:15.373Z,24.80
2023-05-25T14:50:47.279Z,24.90
2023-05-25T14:53:18.685Z,24.90
2023-05-25T14:55:49.581Z,25.00
2023-05-25T14:58:20.820Z,25.10
2023-05-25T15:00:51.745Z,24.90
2023-05-25T15:03:22.759Z,25.00
2023-05-25T15:05:53.745Z,25.30
2023-05-25T15:08:24.684Z,25.60
2023-05-25T15:10:56.507Z,25.80
2023-05-25T15:13:27.394Z,25.70
2023-05-25T15:15:59.589Z,25.80
2023-05-25T15:18:30.629Z,26.10
2023-05-25T15:21:01.622Z,26.10
2023-05-25T15:23:32.618Z,26.40
2023-05-25T15:26:04.361Z,26.60
2023-05-25T15:28:35.472Z,26.90
2023-05-25T15:31:06.359Z,27.00
2023-05-25T15:33:52.007Z,26.90
2023-05-25T15:36:27.389Z,27.00
2023-05-25T15:38:58.573Z,27.20
2023-05-25T15:41:29.469Z,27.40
2023-05-25T15:44:01.442Z,27.50
2023-05-25T15:46:32.530Z,27.20
2023-05-25T15:49:03.573Z,27.10
2023-05-25T15:51:34.506Z,27.40
2023-05-25T15:54:05.765Z,27.40
2023-05-25T15:56:37.689Z,26.90
2023-05-25T15:59:08.644Z,27.00
2023-05-25T16:01:39.614Z,26.90
2023-05-25T16:04:10.727Z,26.80
2023-05-25T16:06:41.690Z,26.90
2023-05-25T16:09:12.669Z,27.00
2023-05-25T16:11:43.624Z,27.20
2023-05-25T16:14:14.605Z,27.50
2023-05-25T16:16:45.642Z,27.60
2023-05-25T16:19:16.701Z,27.50
2023-05-25T16:21:47.684Z,27.50
2023-05-25T16:24:18.698Z,27.40
2023-05-25T16:26:49.774Z,27.20
2023-05-25T16:29:20.775Z,27.10
2023-05-25T16:31:51.843Z,26.80
2023-05-25T16:34:23.209Z,27.10
2023-05-25T16:36:54.118Z,27.40
2023-05-25T16:39:25.052Z,27.30
2023-05-25T16:41:56.915Z,27.30
2023-05-25T16:44:27.954Z,27.40
2023-05-25T16:46:58.849Z,27.30
2023-05-25T16:49:29.906Z,27.00
2023-05-25T16:52:02.601Z,27.10
2023-05-25T16:54:33.565Z,27.30
2023-05-25T16:57:04.707Z,27.30
2023-05-25T16:59:35.757Z,27.30
2023-05-25T17:02:07.179Z,27.00
2023-05-25T17:04:38.201Z,26.90
2023-05-25T17:07:09.179Z,26.90
2023-05-25T17:09:40.110Z,26.90
2023-05-25T17:12:11.177Z,27.00
2023-05-25T17:14:42.099Z,27.10
2023-05-25T17:17:13.440Z,26.90
2023-05-25T17:19:44.377Z,26.70
2023-05-25T17:22:16.425Z,26.80
2023-05-25T17:24:47.335Z,27.10
2023-05-25T17:27:18.588Z,27.30
2023-05-25T17:29:49.522Z,26.90
2023-05-25T17:32:20.722Z,26.90
2023-05-25T17:34:51.768Z,26.90
2023-05-25T17:37:22.666Z,26.80
2023-05-25T17:39:53.574Z,26.80
2023-05-25T17:42:24.629Z,26.70
2023-05-25T17:44:55.701Z,26.50
2023-05-25T17:47:27.415Z,26.00
2023-05-25T17:49:58.376Z,25.70
2023-05-25T17:52:31.023Z,25.50
2023-05-25T17:55:01.950Z,25.20
2023-05-25T17:57:33.193Z,25.00
2023-05-25T18:00:05.188Z,24.70
2023-05-25T18:02:36.310Z,24.50
2023-05-25T18:05:07.776Z,24.30
2023-05-25T18:07:38.702Z,24.20
2023-05-25T18:10:10.125Z,23.90
2023-05-25T18:12:41.537Z,23.80
2023-05-25T18:15:12.864Z,23.70
2023-05-25T18:17:43.852Z,23.50
2023-05-25T18:20:14.879Z,23.40
2023-05-25T18:22:45.853Z,23.40
2023-05-25T18:25:16.927Z,23.30
2023-05-25T18:27:48.059Z,23.10
2023-05-25T18:30:19.223Z,22.90
2023-05-25T18:32:50.333Z,22.80
2023-05-25T18:35:21.365Z,22.60
2023-05-25T18:37:52.283Z,22.60
2023-05-25T18:40:23.416Z,22.60
2023-05-25T18:42:54.389Z,22.50
2023-05-25T18:45:26.077Z,22.40
2023-05-25T18:47:57.317Z,22.30
2023-05-25T18:50:28.262Z,22.30
2023-05-25T18:52:59.603Z,22.30
2023-05-25T18:55:30.534Z,22.20
2023-05-25T18:58:01.532Z,22.10
2023-05-25T19:00:32.652Z,22.00
2023-05-25T19:03:03.764Z,22.00
2023-05-25T19:05:35.232Z,21.80
2023-05-25T19:08:06.242Z,21.70
2023-05-25T19:10:37.201Z,21.60
2023-05-25T19:13:08.508Z,21.60
2023-05-25T19:15:39.395Z,21.60
2023-05-25T19:18:10.497Z,21.50
2023-05-25T19:20:41.587Z,21.40
2023-05-25T19:23:13.403Z,21.30
2023-05-25T19:25:44.524Z,21.20
2023-05-25T19:28:15.711Z,21.10
2023-05-25T19:30:46.879Z,21.10
2023-05-25T19:33:18.335Z,21.00
2023-05-25T19:35:49.255Z,20.90
2023-05-25T19:38:20.347Z,20.80
2023-05-25T19:40:51.369Z,20.70
2023-05-25T19:43:22.314Z,20.60
2023-05-25T19:45:53.248Z,20.50
2023-05-25T19:48:26.665Z,20.40
2023-05-25T19:50:58.470Z,20.20
2023-05-25T19:53:31.375Z,20.20
2023-05-25T19:56:03.505Z,20.10
2023-05-25T19:58:34.552Z,19.80
2023-05-25T20:01:05.693Z,19.80
2023-05-25T20:03:36.794Z,19.60
2023-05-25T20:06:08.029Z,19.50
2023-05-25T20:08:39.054Z,19.40
2023-05-25T20:11:09.961Z,19.30
2023-05-25T20:13:41.492Z,19.10
2023-05-25T20:16:13.016Z,19.00
2023-05-25T20:18:44.651Z,19.00
2023-05-25T20:21:15.643Z,18.80
2023-05-25T20:23:46.859Z,18.80
2023-05-25T20:26:17.796Z,18.60
2023-05-25T20:28:48.735Z,18.50
2023-05-25T20:31:19.660Z,18.50
2023-05-25T20:33:50.618Z,18.60
2023-05-25T20:36:21.549Z,18.60
2023-05-25T20:38:52.709Z,18.50
2023-05-25T20:41:23.638Z,18.40
2023-05-25T20:43:54.526Z,18.20
2023-05-25T20:46:26.182Z,18.10
2023-05-25T20:48:58.165Z,18.00
2023-05-25T20:51:29.246Z,17.90
2023-05-25T20:54:00.151Z,17.80
2023-05-25T20:56:31.380Z,17.60
2023-05-25T20:59:02.262Z,17.50
2023-05-25T21:01:33.269Z,17.50
2023-05-25T21:04:04.477Z,17.50
2023-05-25T21:06:36.496Z,17.40
2023-05-25T21:09:07.583Z,17.40
2023-05-25T21:11:38.556Z,17.30
2023-05-25T21:14:09.600Z,17.20
2023-05-25T21:16:40.850Z,17.20
2023-05-25T21:19:11.954Z,17.10
2023-05-25T21:21:42.866Z,17.10
2023-05-25T21:24:13.832Z,17.10
2023-05-25T21:26:44.709Z,17.10
2023-05-25T21:29:15.677Z,17.10
2023-05-25T21:31:46.751Z,17.00
2023-05-25T21:34:17.782Z,16.90
2023-05-25T21:36:49.211Z,16.90
2023-05-25T21:39:20.156Z,16.80
2023-05-25T21:41:51.113Z,16.80
2023-05-25T21:44:22.015Z,16.70
2023-05-25T21:46:53.021Z,16.70
2023-05-25T21:49:23.942Z,16.60
2023-05-25T21:51:54.848Z,16.50
2023-05-25T21:54:25.994Z,16.40
2023-05-25T21:56:56.917Z,16.20
2023-05-25T21:59:27.843Z,16.20
2023-05-25T22:01:58.818Z,16.10
2023-05-25T22:04:29.752Z,16.20
2023-05-25T22:07:00.710Z,16.20
2023-05-25T22:09:31.820Z,16.10
2023-05-25T22:12:02.822Z,16.10
2023-05-25T22:14:33.795Z,16.10
2023-05-25T22:17:05.153Z,16.10
2023-05-25T22:19:36.252Z,16.00
2023-05-25T22:22:07.143Z,16.00
2023-05-25T22:24:38.087Z,15.90
2023-05-25T22:27:09.118Z,15.90
2023-05-25T22:29:40.063Z,15.70
2023-05-25T22:32:11.019Z,15.70
2023-05-25T22:34:41.938Z,15.60
2023-05-25T22:37:14.028Z,15.60
2023-05-25T22:39:45.051Z,15.60
2023-05-25T22:42:16.030Z,15.60
2023-05-25T22:44:46.926Z,15.50
2023-05-25T22:47:17.990Z,15.50
2023-05-25T22:49:49.014Z,15.50
2023-05-25T22:52:19.963Z,15.50
2023-05-25T22:54:50.885Z,15.50
2023-05-25T22:57:21.803Z,15.40
2023-05-25T22:59:52.689Z,15.40
2023-05-25T23:02:23.613Z,15.40
2023-05-25T23:04:54.529Z,15.40
2023-05-25T23:07:26.215Z,15.60
2023-05-25T23:09:57.321Z,15.70
2023-05-25T23:12:28.358Z,15.80
2023-05-25T23:15:01.370Z,15.90
2023-05-25T23:17:32.642Z,16.10
2023-05-25T23:20:13.089Z,16.30
2023-05-25T23:22:43.989Z,16.30
2023-05-25T23:25:14.933Z,16.40
2023-05-25T23:27:45.794Z,16.50
2023-05-25T23:30:16.826Z,16.50
2023-05-25T23:32:47.791Z,16.50
2023-05-25T23:35:18.723Z,16.50
2023-05-25T23:37:51.896Z,16.40
2023-05-25T23:40:22.958Z,16.20
2023-05-25T23:42:53.898Z,16.10
2023-05-25T23:45:24.759Z,16.00
2023-05-25T23:47:55.818Z,15.90
2023-05-25T23:50:26.700Z,15.70
2023-05-25T23:52:57.592Z,15.60
2023-05-25T23:55:28.761Z,15.70
2023-05-25T23:57:59.639Z,15.60
